KAPC/APC METAR and TAF weather

Enter ICAO airport designator
Station Type Date Time Source
KAPC METAR 2019/08/25 13:14 UTC NOAA

KAPC 251314Z AUTO 21003KT 8SM CLR 13/12 A2998 RMK AO2 T01280122


Station Type Date Time Source
KAPC Decoded METAR 2019/08/25 13:14 UTC NOAA

Station name not available
Aug 25, 2019 - 09:14 AM EDT / 2019.08.25 1314 UTC
Wind: from the SSW (210 degrees) at 3 MPH (3 KT):0
Visibility: 8 mile(s):0
Sky conditions: clear
Temperature: 55.0 F (12.8 C)
Dew Point: 54.0 F (12.2 C)
Relative Humidity: 96%
Pressure (altimeter): 29.98 in. Hg (1015 hPa)
ob: KAPC 251314Z AUTO 21003KT 8SM CLR 13/12 A2998 RMK AO2 T01280122
cycle: 13

Station Type Date Time Source
KAPC TAF 2016/02/08 18:39 UTC NOAA

TAF KAPC 081738Z 0818/0918 08008KT P6SM SKC
FM081900 09012KT P6SM SKC
FM090000 07007KT P6SM SKC
FM090600 04004KT P6SM SKC

Example: see airport list